Pagrindinis puslapis
METAR-TAF:

METAR-TAF

Oro uostai :

Ekseteris, Anglija

platuma: 50-44N, ilguma: 003-25W, Aukštis: 30 m

Dabartinis oras

Ataskaita buvo paskelbta 27 minutes, ne 05:20 UTC
Vėjas 4 kt iš Pietryčių
Temperatūra 17°C
Drėgmė 100%
Slėgis 1009 hPa
Matomumas: 3000 m
Su prošvaistėmis ne aukštis 500 ft
lietus, dulksna, rūkana,

METAR: EGTE 200520Z 13004KT 3000 -RADZ BR BKN005 17/17 Q1009

Laikas: 06:47 (05:47 UTC)

Prognozė

Ataskaita buvo paskelbta 6 valandos ir 46 minutes, ne 23:01 UTC
Prognozė galioja nuo 20 metu 00 UTC su 20 metu 02 UTC
Vėjas 7 kt iš Pietų/Pietvakarių
Matomumas 10 km arba daugiau
Mažai debesys ne aukštis 3000 ft
Tikimybė 40% :
Laikinai
nuo 20 metu 00 UTC su 20 metu 02 UTC
Matomumas: 8000 m
Su prošvaistėmis ne aukštis 700 ft

TAF: EGTE 192301Z 2000/2002 20007KT 9999 FEW030 PROB40 TEMPO 2000/2002 8000 BKN007

Orai ataskaitas ir orų prognozės (METAR, TAF).

turimą stotys yra geltonos ir raudonos taškus žemėlapyje.

Perkelti pele per norėdami pamatyti stoties vardą.

Tada spustelėkite, norėdami matyti oro stebėjimo ir prognozės.

Norėdami pakeisti žemėlapį: spustelėkite ant žalios mygtukų su juodo kryžiaus žemyn,; žalią mygtuką su brūkšneliu, jei norite nutolinti; arba žalių rodyklių gretimoms žemėlapius.


METAR-TAF: